sensor_id;sensor_type;location;lat;lon;timestamp;P1;durP1;ratioP1;P2;durP2;ratioP2
11054;SDS011;5580;50.106;8.702;2023-04-07T00:01:22;24.07;;;16.07;;
11054;SDS011;5580;50.106;8.702;2023-04-07T00:03:47;24.13;;;17.37;;
11054;SDS011;5580;50.106;8.702;2023-04-07T00:06:13;24.97;;;17.07;;
11054;SDS011;5580;50.106;8.702;2023-04-07T00:08:38;25.73;;;17.13;;
11054;SDS011;5580;50.106;8.702;2023-04-07T00:11:04;26.30;;;17.17;;
11054;SDS011;5580;50.106;8.702;2023-04-07T00:13:30;23.57;;;16.30;;
11054;SDS011;5580;50.106;8.702;2023-04-07T00:15:55;24.37;;;17.13;;
11054;SDS011;5580;50.106;8.702;2023-04-07T00:18:21;25.03;;;17.40;;
11054;SDS011;5580;50.106;8.702;2023-04-07T00:20:47;24.17;;;16.53;;
11054;SDS011;5580;50.106;8.702;2023-04-07T00:23:12;24.63;;;16.93;;
11054;SDS011;5580;50.106;8.702;2023-04-07T00:25:38;26.27;;;17.93;;
11054;SDS011;5580;50.106;8.702;2023-04-07T00:28:03;24.30;;;17.03;;
11054;SDS011;5580;50.106;8.702;2023-04-07T00:30:29;25.97;;;17.37;;
11054;SDS011;5580;50.106;8.702;2023-04-07T00:32:54;24.37;;;17.37;;
11054;SDS011;5580;50.106;8.702;2023-04-07T00:35:20;25.57;;;16.93;;
11054;SDS011;5580;50.106;8.702;2023-04-07T00:37:46;29.57;;;17.73;;
11054;SDS011;5580;50.106;8.702;2023-04-07T00:40:12;28.03;;;18.50;;
11054;SDS011;5580;50.106;8.702;2023-04-07T00:42:37;26.47;;;18.17;;
11054;SDS011;5580;50.106;8.702;2023-04-07T00:45:03;26.20;;;17.93;;
11054;SDS011;5580;50.106;8.702;2023-04-07T00:47:29;25.20;;;17.80;;
11054;SDS011;5580;50.106;8.702;2023-04-07T00:49:55;26.43;;;17.67;;
11054;SDS011;5580;50.106;8.702;2023-04-07T00:52:20;26.53;;;17.43;;
11054;SDS011;5580;50.106;8.702;2023-04-07T00:54:53;25.50;;;17.83;;
11054;SDS011;5580;50.106;8.702;2023-04-07T00:57:19;25.23;;;17.73;;
11054;SDS011;5580;50.106;8.702;2023-04-07T00:59:45;25.70;;;17.03;;
11054;SDS011;5580;50.106;8.702;2023-04-07T01:02:14;25.97;;;17.93;;
11054;SDS011;5580;50.106;8.702;2023-04-07T01:04:43;25.37;;;17.27;;
11054;SDS011;5580;50.106;8.702;2023-04-07T01:10:13;25.23;;;17.37;;
11054;SDS011;5580;50.106;8.702;2023-04-07T01:12:53;24.27;;;17.27;;
11054;SDS011;5580;50.106;8.702;2023-04-07T01:15:27;24.97;;;16.17;;
11054;SDS011;5580;50.106;8.702;2023-04-07T01:17:58;26.50;;;17.40;;
11054;SDS011;5580;50.106;8.702;2023-04-07T01:20:31;24.00;;;16.90;;
11054;SDS011;5580;50.106;8.702;2023-04-07T01:22:57;24.57;;;16.87;;
11054;SDS011;5580;50.106;8.702;2023-04-07T01:25:52;23.80;;;16.80;;
11054;SDS011;5580;50.106;8.702;2023-04-07T01:31:08;25.83;;;17.13;;
11054;SDS011;5580;50.106;8.702;2023-04-07T01:33:36;23.80;;;16.63;;
11054;SDS011;5580;50.106;8.702;2023-04-07T01:36:02;24.63;;;16.83;;
11054;SDS011;5580;50.106;8.702;2023-04-07T01:38:30;24.40;;;16.17;;
11054;SDS011;5580;50.106;8.702;2023-04-07T01:40:57;26.43;;;17.00;;
11054;SDS011;5580;50.106;8.702;2023-04-07T01:43:24;22.90;;;15.50;;
11054;SDS011;5580;50.106;8.702;2023-04-07T01:45:52;22.90;;;15.37;;
11054;SDS011;5580;50.106;8.702;2023-04-07T01:48:19;23.50;;;16.20;;
11054;SDS011;5580;50.106;8.702;2023-04-07T01:50:45;23.80;;;15.70;;
11054;SDS011;5580;50.106;8.702;2023-04-07T01:53:11;22.63;;;15.27;;
11054;SDS011;5580;50.106;8.702;2023-04-07T01:55:39;23.07;;;15.83;;
11054;SDS011;5580;50.106;8.702;2023-04-07T01:58:06;23.77;;;15.93;;
11054;SDS011;5580;50.106;8.702;2023-04-07T02:00:32;23.67;;;15.87;;
11054;SDS011;5580;50.106;8.702;2023-04-07T02:02:59;23.57;;;15.50;;
11054;SDS011;5580;50.106;8.702;2023-04-07T02:05:44;24.37;;;15.70;;
11054;SDS011;5580;50.106;8.702;2023-04-07T02:08:12;24.43;;;16.83;;
11054;SDS011;5580;50.106;8.702;2023-04-07T02:10:41;24.10;;;15.60;;
11054;SDS011;5580;50.106;8.702;2023-04-07T02:13:11;23.13;;;16.13;;
11054;SDS011;5580;50.106;8.702;2023-04-07T02:15:39;25.37;;;15.43;;
11054;SDS011;5580;50.106;8.702;2023-04-07T02:18:06;22.73;;;14.97;;
11054;SDS011;5580;50.106;8.702;2023-04-07T02:20:34;24.83;;;15.20;;
11054;SDS011;5580;50.106;8.702;2023-04-07T02:23:01;23.17;;;14.77;;
11054;SDS011;5580;50.106;8.702;2023-04-07T02:25:28;22.50;;;15.00;;
11054;SDS011;5580;50.106;8.702;2023-04-07T02:27:55;25.07;;;15.80;;
11054;SDS011;5580;50.106;8.702;2023-04-07T02:30:23;22.83;;;15.37;;
11054;SDS011;5580;50.106;8.702;2023-04-07T02:32:49;23.87;;;14.83;;
11054;SDS011;5580;50.106;8.702;2023-04-07T02:35:15;24.13;;;15.40;;
11054;SDS011;5580;50.106;8.702;2023-04-07T02:37:42;22.43;;;15.50;;
11054;SDS011;5580;50.106;8.702;2023-04-07T02:40:08;23.03;;;15.40;;
11054;SDS011;5580;50.106;8.702;2023-04-07T02:42:34;24.00;;;15.43;;
11054;SDS011;5580;50.106;8.702;2023-04-07T02:45:03;23.13;;;15.07;;
11054;SDS011;5580;50.106;8.702;2023-04-07T02:47:30;23.73;;;15.43;;
11054;SDS011;5580;50.106;8.702;2023-04-07T02:49:55;21.77;;;14.73;;
11054;SDS011;5580;50.106;8.702;2023-04-07T02:52:21;22.00;;;14.37;;
11054;SDS011;5580;50.106;8.702;2023-04-07T02:54:46;22.13;;;15.47;;
11054;SDS011;5580;50.106;8.702;2023-04-07T02:57:12;22.20;;;14.80;;
11054;SDS011;5580;50.106;8.702;2023-04-07T02:59:38;24.13;;;15.47;;
11054;SDS011;5580;50.106;8.702;2023-04-07T03:02:04;24.13;;;14.97;;
11054;SDS011;5580;50.106;8.702;2023-04-07T03:04:29;22.70;;;15.20;;
11054;SDS011;5580;50.106;8.702;2023-04-07T03:06:55;21.13;;;14.67;;
11054;SDS011;5580;50.106;8.702;2023-04-07T03:09:21;21.03;;;14.60;;
11054;SDS011;5580;50.106;8.702;2023-04-07T03:11:47;21.93;;;14.67;;
11054;SDS011;5580;50.106;8.702;2023-04-07T03:14:12;21.50;;;14.53;;
11054;SDS011;5580;50.106;8.702;2023-04-07T03:16:38;21.07;;;14.47;;
11054;SDS011;5580;50.106;8.702;2023-04-07T03:19:03;21.97;;;14.77;;
11054;SDS011;5580;50.106;8.702;2023-04-07T03:21:29;21.67;;;14.27;;
11054;SDS011;5580;50.106;8.702;2023-04-07T03:23:55;22.07;;;14.97;;
11054;SDS011;5580;50.106;8.702;2023-04-07T03:26:21;22.17;;;14.43;;
11054;SDS011;5580;50.106;8.702;2023-04-07T03:28:47;24.10;;;14.57;;
11054;SDS011;5580;50.106;8.702;2023-04-07T03:31:13;21.67;;;14.47;;
11054;SDS011;5580;50.106;8.702;2023-04-07T03:33:38;22.90;;;14.70;;
11054;SDS011;5580;50.106;8.702;2023-04-07T03:36:04;22.13;;;14.73;;
11054;SDS011;5580;50.106;8.702;2023-04-07T03:38:30;21.00;;;14.47;;
11054;SDS011;5580;50.106;8.702;2023-04-07T03:40:56;23.47;;;15.20;;
11054;SDS011;5580;50.106;8.702;2023-04-07T03:43:21;21.13;;;14.47;;
11054;SDS011;5580;50.106;8.702;2023-04-07T03:45:47;22.37;;;15.00;;
11054;SDS011;5580;50.106;8.702;2023-04-07T03:48:12;21.93;;;15.03;;
11054;SDS011;5580;50.106;8.702;2023-04-07T03:50:38;23.50;;;14.77;;
11054;SDS011;5580;50.106;8.702;2023-04-07T03:53:04;25.73;;;15.60;;
11054;SDS011;5580;50.106;8.702;2023-04-07T03:55:30;21.87;;;14.43;;
11054;SDS011;5580;50.106;8.702;2023-04-07T03:57:56;22.70;;;14.93;;
11054;SDS011;5580;50.106;8.702;2023-04-07T04:00:21;23.17;;;15.90;;
11054;SDS011;5580;50.106;8.702;2023-04-07T04:02:47;24.93;;;16.27;;
11054;SDS011;5580;50.106;8.702;2023-04-07T04:05:13;24.30;;;15.63;;
11054;SDS011;5580;50.106;8.702;2023-04-07T04:07:38;22.10;;;14.90;;
11054;SDS011;5580;50.106;8.702;2023-04-07T04:10:04;24.53;;;15.53;;
11054;SDS011;5580;50.106;8.702;2023-04-07T04:12:30;23.80;;;15.37;;
11054;SDS011;5580;50.106;8.702;2023-04-07T04:14:56;24.13;;;15.63;;
11054;SDS011;5580;50.106;8.702;2023-04-07T04:17:21;24.77;;;15.93;;
11054;SDS011;5580;50.106;8.702;2023-04-07T04:19:47;23.43;;;15.20;;
11054;SDS011;5580;50.106;8.702;2023-04-07T04:22:12;22.77;;;15.63;;
11054;SDS011;5580;50.106;8.702;2023-04-07T04:24:38;24.97;;;15.57;;
11054;SDS011;5580;50.106;8.702;2023-04-07T04:27:05;23.07;;;15.57;;
11054;SDS011;5580;50.106;8.702;2023-04-07T04:29:31;22.73;;;15.10;;
11054;SDS011;5580;50.106;8.702;2023-04-07T04:31:57;24.30;;;15.80;;
11054;SDS011;5580;50.106;8.702;2023-04-07T04:34:22;24.07;;;16.13;;
11054;SDS011;5580;50.106;8.702;2023-04-07T04:36:48;23.27;;;15.93;;
11054;SDS011;5580;50.106;8.702;2023-04-07T04:39:14;24.13;;;15.33;;
11054;SDS011;5580;50.106;8.702;2023-04-07T04:41:39;25.13;;;15.40;;
11054;SDS011;5580;50.106;8.702;2023-04-07T04:44:05;23.10;;;15.10;;
11054;SDS011;5580;50.106;8.702;2023-04-07T04:46:30;21.70;;;14.93;;
11054;SDS011;5580;50.106;8.702;2023-04-07T04:48:56;22.77;;;15.03;;
11054;SDS011;5580;50.106;8.702;2023-04-07T04:51:22;22.17;;;15.73;;
11054;SDS011;5580;50.106;8.702;2023-04-07T04:53:48;22.70;;;14.97;;
11054;SDS011;5580;50.106;8.702;2023-04-07T04:56:13;24.10;;;15.57;;
11054;SDS011;5580;50.106;8.702;2023-04-07T04:58:39;22.63;;;15.37;;
11054;SDS011;5580;50.106;8.702;2023-04-07T05:01:09;26.17;;;15.70;;
11054;SDS011;5580;50.106;8.702;2023-04-07T05:03:38;22.40;;;15.13;;
11054;SDS011;5580;50.106;8.702;2023-04-07T05:06:04;23.80;;;14.83;;
11054;SDS011;5580;50.106;8.702;2023-04-07T05:08:30;22.83;;;15.63;;
11054;SDS011;5580;50.106;8.702;2023-04-07T05:10:55;21.67;;;14.90;;
11054;SDS011;5580;50.106;8.702;2023-04-07T05:13:21;21.37;;;14.60;;
11054;SDS011;5580;50.106;8.702;2023-04-07T05:15:47;23.00;;;14.87;;
11054;SDS011;5580;50.106;8.702;2023-04-07T05:18:13;22.97;;;15.33;;
11054;SDS011;5580;50.106;8.702;2023-04-07T05:20:38;21.97;;;14.73;;
11054;SDS011;5580;50.106;8.702;2023-04-07T05:23:04;22.40;;;15.17;;
11054;SDS011;5580;50.106;8.702;2023-04-07T05:25:30;22.77;;;15.50;;
11054;SDS011;5580;50.106;8.702;2023-04-07T05:27:57;24.07;;;15.63;;
11054;SDS011;5580;50.106;8.702;2023-04-07T05:30:23;24.67;;;16.43;;
11054;SDS011;5580;50.106;8.702;2023-04-07T05:32:49;20.57;;;14.37;;
11054;SDS011;5580;50.106;8.702;2023-04-07T05:35:17;21.67;;;14.60;;
11054;SDS011;5580;50.106;8.702;2023-04-07T05:37:43;26.20;;;15.80;;
11054;SDS011;5580;50.106;8.702;2023-04-07T05:40:09;22.73;;;14.93;;
11054;SDS011;5580;50.106;8.702;2023-04-07T05:42:35;24.43;;;14.80;;
11054;SDS011;5580;50.106;8.702;2023-04-07T05:45:00;21.20;;;14.43;;
11054;SDS011;5580;50.106;8.702;2023-04-07T05:47:26;22.10;;;15.07;;
11054;SDS011;5580;50.106;8.702;2023-04-07T05:49:51;25.30;;;15.50;;
11054;SDS011;5580;50.106;8.702;2023-04-07T05:52:17;22.83;;;15.47;;
11054;SDS011;5580;50.106;8.702;2023-04-07T05:54:43;25.20;;;15.47;;
11054;SDS011;5580;50.106;8.702;2023-04-07T05:57:08;23.87;;;15.57;;
11054;SDS011;5580;50.106;8.702;2023-04-07T05:59:34;23.60;;;14.83;;
11054;SDS011;5580;50.106;8.702;2023-04-07T06:02:01;21.67;;;15.10;;
11054;SDS011;5580;50.106;8.702;2023-04-07T06:04:27;23.67;;;15.20;;
11054;SDS011;5580;50.106;8.702;2023-04-07T06:06:53;22.90;;;15.13;;
11054;SDS011;5580;50.106;8.702;2023-04-07T06:09:22;23.97;;;15.17;;
11054;SDS011;5580;50.106;8.702;2023-04-07T06:11:48;24.27;;;15.93;;
11054;SDS011;5580;50.106;8.702;2023-04-07T06:14:15;23.50;;;16.00;;
11054;SDS011;5580;50.106;8.702;2023-04-07T06:16:41;24.10;;;14.63;;
11054;SDS011;5580;50.106;8.702;2023-04-07T06:19:07;24.03;;;15.53;;
11054;SDS011;5580;50.106;8.702;2023-04-07T06:21:32;22.73;;;14.90;;
11054;SDS011;5580;50.106;8.702;2023-04-07T06:23:58;23.93;;;15.17;;
11054;SDS011;5580;50.106;8.702;2023-04-07T06:26:24;24.03;;;15.57;;
11054;SDS011;5580;50.106;8.702;2023-04-07T06:28:51;23.10;;;14.63;;
11054;SDS011;5580;50.106;8.702;2023-04-07T06:31:17;24.23;;;15.40;;
11054;SDS011;5580;50.106;8.702;2023-04-07T06:33:43;22.23;;;14.70;;
11054;SDS011;5580;50.106;8.702;2023-04-07T06:36:09;22.70;;;15.07;;
11054;SDS011;5580;50.106;8.702;2023-04-07T06:38:35;23.17;;;15.83;;
11054;SDS011;5580;50.106;8.702;2023-04-07T06:41:00;22.20;;;14.47;;
11054;SDS011;5580;50.106;8.702;2023-04-07T06:43:26;21.53;;;15.13;;
11054;SDS011;5580;50.106;8.702;2023-04-07T06:45:52;22.27;;;14.97;;
11054;SDS011;5580;50.106;8.702;2023-04-07T06:48:18;22.73;;;15.60;;
11054;SDS011;5580;50.106;8.702;2023-04-07T06:50:50;23.60;;;16.07;;
11054;SDS011;5580;50.106;8.702;2023-04-07T06:53:16;24.13;;;14.73;;
11054;SDS011;5580;50.106;8.702;2023-04-07T06:55:42;23.73;;;14.73;;
11054;SDS011;5580;50.106;8.702;2023-04-07T06:58:07;22.87;;;15.17;;
11054;SDS011;5580;50.106;8.702;2023-04-07T07:00:33;21.47;;;14.40;;
11054;SDS011;5580;50.106;8.702;2023-04-07T07:03:00;24.10;;;15.90;;
11054;SDS011;5580;50.106;8.702;2023-04-07T07:05:26;22.90;;;15.90;;
11054;SDS011;5580;50.106;8.702;2023-04-07T07:07:51;24.13;;;15.63;;
11054;SDS011;5580;50.106;8.702;2023-04-07T07:10:17;22.17;;;15.03;;
11054;SDS011;5580;50.106;8.702;2023-04-07T07:12:44;25.07;;;15.53;;
11054;SDS011;5580;50.106;8.702;2023-04-07T07:15:10;24.60;;;16.00;;
11054;SDS011;5580;50.106;8.702;2023-04-07T07:17:35;22.67;;;15.40;;
11054;SDS011;5580;50.106;8.702;2023-04-07T07:20:01;22.67;;;15.80;;
11054;SDS011;5580;50.106;8.702;2023-04-07T07:22:27;23.10;;;16.00;;
11054;SDS011;5580;50.106;8.702;2023-04-07T07:24:52;26.23;;;15.53;;
11054;SDS011;5580;50.106;8.702;2023-04-07T07:27:18;24.33;;;15.83;;
11054;SDS011;5580;50.106;8.702;2023-04-07T07:29:43;24.47;;;16.23;;
11054;SDS011;5580;50.106;8.702;2023-04-07T07:32:09;25.57;;;16.63;;
11054;SDS011;5580;50.106;8.702;2023-04-07T07:34:35;25.73;;;16.40;;
11054;SDS011;5580;50.106;8.702;2023-04-07T07:37:00;23.13;;;15.33;;
11054;SDS011;5580;50.106;8.702;2023-04-07T07:39:26;23.37;;;15.20;;
11054;SDS011;5580;50.106;8.702;2023-04-07T07:41:52;22.47;;;15.30;;
11054;SDS011;5580;50.106;8.702;2023-04-07T07:44:17;25.13;;;16.27;;
11054;SDS011;5580;50.106;8.702;2023-04-07T07:46:44;23.37;;;15.60;;
11054;SDS011;5580;50.106;8.702;2023-04-07T07:49:10;22.70;;;15.40;;
11054;SDS011;5580;50.106;8.702;2023-04-07T07:51:35;26.83;;;15.87;;
11054;SDS011;5580;50.106;8.702;2023-04-07T07:54:01;22.80;;;15.70;;
11054;SDS011;5580;50.106;8.702;2023-04-07T07:56:27;24.30;;;16.30;;
11054;SDS011;5580;50.106;8.702;2023-04-07T07:58:52;23.33;;;15.73;;
11054;SDS011;5580;50.106;8.702;2023-04-07T08:01:18;22.73;;;15.50;;
11054;SDS011;5580;50.106;8.702;2023-04-07T08:03:44;22.80;;;15.30;;
11054;SDS011;5580;50.106;8.702;2023-04-07T08:06:09;23.60;;;15.43;;
11054;SDS011;5580;50.106;8.702;2023-04-07T08:08:35;24.03;;;15.97;;
11054;SDS011;5580;50.106;8.702;2023-04-07T08:11:01;26.13;;;16.17;;
11054;SDS011;5580;50.106;8.702;2023-04-07T08:13:27;22.40;;;15.23;;
11054;SDS011;5580;50.106;8.702;2023-04-07T08:15:53;24.93;;;15.97;;
11054;SDS011;5580;50.106;8.702;2023-04-07T08:18:19;22.87;;;15.50;;
11054;SDS011;5580;50.106;8.702;2023-04-07T08:20:45;24.27;;;16.47;;
11054;SDS011;5580;50.106;8.702;2023-04-07T08:23:11;23.90;;;16.00;;
11054;SDS011;5580;50.106;8.702;2023-04-07T08:25:36;22.13;;;14.90;;
11054;SDS011;5580;50.106;8.702;2023-04-07T08:28:04;22.03;;;14.97;;
11054;SDS011;5580;50.106;8.702;2023-04-07T08:30:30;23.60;;;15.17;;
11054;SDS011;5580;50.106;8.702;2023-04-07T08:32:56;23.40;;;16.40;;
11054;SDS011;5580;50.106;8.702;2023-04-07T08:35:21;23.50;;;15.63;;
11054;SDS011;5580;50.106;8.702;2023-04-07T08:37:47;22.30;;;15.37;;
11054;SDS011;5580;50.106;8.702;2023-04-07T08:40:13;24.20;;;15.50;;
11054;SDS011;5580;50.106;8.702;2023-04-07T08:42:40;24.63;;;16.60;;
11054;SDS011;5580;50.106;8.702;2023-04-07T08:45:08;23.07;;;16.20;;
11054;SDS011;5580;50.106;8.702;2023-04-07T08:47:34;23.20;;;15.80;;
11054;SDS011;5580;50.106;8.702;2023-04-07T08:50:06;22.50;;;16.03;;
11054;SDS011;5580;50.106;8.702;2023-04-07T08:52:34;24.40;;;16.40;;
11054;SDS011;5580;50.106;8.702;2023-04-07T08:55:08;25.73;;;17.23;;
11054;SDS011;5580;50.106;8.702;2023-04-07T08:57:35;24.30;;;15.83;;
11054;SDS011;5580;50.106;8.702;2023-04-07T09:00:01;22.80;;;15.90;;
11054;SDS011;5580;50.106;8.702;2023-04-07T09:02:31;24.23;;;16.97;;
11054;SDS011;5580;50.106;8.702;2023-04-07T09:04:58;24.10;;;16.37;;
11054;SDS011;5580;50.106;8.702;2023-04-07T09:07:25;24.37;;;15.40;;
11054;SDS011;5580;50.106;8.702;2023-04-07T09:09:50;24.80;;;16.17;;
11054;SDS011;5580;50.106;8.702;2023-04-07T09:12:16;22.97;;;16.40;;
11054;SDS011;5580;50.106;8.702;2023-04-07T09:14:41;21.63;;;15.33;;
11054;SDS011;5580;50.106;8.702;2023-04-07T09:17:07;24.40;;;16.33;;
11054;SDS011;5580;50.106;8.702;2023-04-07T09:19:33;24.80;;;15.97;;
11054;SDS011;5580;50.106;8.702;2023-04-07T09:21:59;23.13;;;16.33;;
11054;SDS011;5580;50.106;8.702;2023-04-07T09:24:25;24.43;;;17.03;;
11054;SDS011;5580;50.106;8.702;2023-04-07T09:27:25;24.93;;;16.47;;
11054;SDS011;5580;50.106;8.702;2023-04-07T09:29:45;26.10;;;17.33;;
11054;SDS011;5580;50.106;8.702;2023-04-07T09:32:11;23.83;;;16.80;;
11054;SDS011;5580;50.106;8.702;2023-04-07T09:34:50;23.80;;;16.13;;
11054;SDS011;5580;50.106;8.702;2023-04-07T09:37:23;24.63;;;17.07;;
11054;SDS011;5580;50.106;8.702;2023-04-07T09:39:51;23.20;;;16.03;;
11054;SDS011;5580;50.106;8.702;2023-04-07T09:42:18;24.60;;;16.50;;
11054;SDS011;5580;50.106;8.702;2023-04-07T09:44:46;25.10;;;16.83;;
11054;SDS011;5580;50.106;8.702;2023-04-07T09:47:12;24.83;;;17.40;;
11054;SDS011;5580;50.106;8.702;2023-04-07T09:49:48;26.00;;;17.73;;
11054;SDS011;5580;50.106;8.702;2023-04-07T09:52:16;24.47;;;17.63;;
11054;SDS011;5580;50.106;8.702;2023-04-07T09:54:44;26.70;;;18.93;;
11054;SDS011;5580;50.106;8.702;2023-04-07T09:57:11;24.27;;;17.50;;
11054;SDS011;5580;50.106;8.702;2023-04-07T09:59:38;24.70;;;18.17;;
11054;SDS011;5580;50.106;8.702;2023-04-07T10:02:09;26.33;;;19.03;;
11054;SDS011;5580;50.106;8.702;2023-04-07T10:04:35;25.93;;;19.00;;
11054;SDS011;5580;50.106;8.702;2023-04-07T10:07:01;26.10;;;18.90;;
11054;SDS011;5580;50.106;8.702;2023-04-07T10:09:28;25.40;;;18.53;;
11054;SDS011;5580;50.106;8.702;2023-04-07T10:11:55;24.33;;;18.20;;
11054;SDS011;5580;50.106;8.702;2023-04-07T10:14:25;27.80;;;19.13;;
11054;SDS011;5580;50.106;8.702;2023-04-07T10:17:00;25.90;;;18.53;;
11054;SDS011;5580;50.106;8.702;2023-04-07T10:19:31;27.93;;;18.63;;
11054;SDS011;5580;50.106;8.702;2023-04-07T10:21:57;26.10;;;18.70;;
11054;SDS011;5580;50.106;8.702;2023-04-07T10:24:35;25.97;;;18.93;;
11054;SDS011;5580;50.106;8.702;2023-04-07T10:27:03;24.37;;;18.27;;
11054;SDS011;5580;50.106;8.702;2023-04-07T10:29:36;27.03;;;18.80;;
11054;SDS011;5580;50.106;8.702;2023-04-07T10:32:05;27.47;;;18.93;;
11054;SDS011;5580;50.106;8.702;2023-04-07T10:37:17;27.23;;;19.93;;
11054;SDS011;5580;50.106;8.702;2023-04-07T10:39:45;25.80;;;18.57;;
11054;SDS011;5580;50.106;8.702;2023-04-07T10:45:08;31.53;;;20.13;;
11054;SDS011;5580;50.106;8.702;2023-04-07T10:47:34;26.80;;;19.23;;
11054;SDS011;5580;50.106;8.702;2023-04-07T10:50:21;28.00;;;19.63;;
11054;SDS011;5580;50.106;8.702;2023-04-07T10:52:48;30.87;;;20.67;;
11054;SDS011;5580;50.106;8.702;2023-04-07T11:03:21;31.33;;;20.73;;
11054;SDS011;5580;50.106;8.702;2023-04-07T11:05:48;29.10;;;20.33;;
11054;SDS011;5580;50.106;8.702;2023-04-07T11:08:14;27.93;;;19.90;;
11054;SDS011;5580;50.106;8.702;2023-04-07T11:10:39;28.63;;;20.13;;
11054;SDS011;5580;50.106;8.702;2023-04-07T11:13:11;28.17;;;19.83;;
11054;SDS011;5580;50.106;8.702;2023-04-07T11:15:37;30.50;;;21.20;;
11054;SDS011;5580;50.106;8.702;2023-04-07T11:23:10;27.03;;;18.27;;
11054;SDS011;5580;50.106;8.702;2023-04-07T11:25:36;28.53;;;18.83;;
11054;SDS011;5580;50.106;8.702;2023-04-07T11:28:04;28.37;;;19.10;;
11054;SDS011;5580;50.106;8.702;2023-04-07T11:30:30;25.73;;;18.63;;
11054;SDS011;5580;50.106;8.702;2023-04-07T11:32:56;24.53;;;16.87;;
11054;SDS011;5580;50.106;8.702;2023-04-07T11:35:22;24.93;;;17.90;;
11054;SDS011;5580;50.106;8.702;2023-04-07T11:37:49;23.80;;;17.17;;
11054;SDS011;5580;50.106;8.702;2023-04-07T11:40:30;23.47;;;16.83;;
11054;SDS011;5580;50.106;8.702;2023-04-07T11:42:59;24.40;;;16.67;;
11054;SDS011;5580;50.106;8.702;2023-04-07T11:45:28;25.03;;;16.87;;
11054;SDS011;5580;50.106;8.702;2023-04-07T11:47:54;23.40;;;16.40;;
11054;SDS011;5580;50.106;8.702;2023-04-07T11:53:05;23.23;;;15.70;;
11054;SDS011;5580;50.106;8.702;2023-04-07T11:55:31;22.57;;;16.03;;
11054;SDS011;5580;50.106;8.702;2023-04-07T11:58:04;21.93;;;15.37;;
11054;SDS011;5580;50.106;8.702;2023-04-07T12:00:30;23.33;;;16.13;;
11054;SDS011;5580;50.106;8.702;2023-04-07T12:02:56;22.30;;;15.63;;
11054;SDS011;5580;50.106;8.702;2023-04-07T12:05:21;23.60;;;16.37;;
11054;SDS011;5580;50.106;8.702;2023-04-07T12:07:51;23.77;;;16.93;;
11054;SDS011;5580;50.106;8.702;2023-04-07T12:10:18;22.83;;;16.23;;
11054;SDS011;5580;50.106;8.702;2023-04-07T12:12:44;21.30;;;14.67;;
11054;SDS011;5580;50.106;8.702;2023-04-07T12:15:10;22.47;;;14.90;;
11054;SDS011;5580;50.106;8.702;2023-04-07T12:17:37;22.37;;;15.17;;
11054;SDS011;5580;50.106;8.702;2023-04-07T12:20:03;22.87;;;15.13;;
11054;SDS011;5580;50.106;8.702;2023-04-07T12:22:29;19.90;;;13.83;;
11054;SDS011;5580;50.106;8.702;2023-04-07T12:24:54;18.77;;;13.03;;
11054;SDS011;5580;50.106;8.702;2023-04-07T12:27:20;18.03;;;11.87;;
11054;SDS011;5580;50.106;8.702;2023-04-07T12:29:45;18.73;;;13.10;;
11054;SDS011;5580;50.106;8.702;2023-04-07T12:32:11;20.03;;;14.00;;
11054;SDS011;5580;50.106;8.702;2023-04-07T12:34:37;19.93;;;14.30;;
11054;SDS011;5580;50.106;8.702;2023-04-07T12:37:03;22.93;;;13.70;;
11054;SDS011;5580;50.106;8.702;2023-04-07T12:39:28;19.07;;;13.27;;
11054;SDS011;5580;50.106;8.702;2023-04-07T12:41:54;18.73;;;12.67;;
11054;SDS011;5580;50.106;8.702;2023-04-07T12:44:22;20.43;;;14.00;;
11054;SDS011;5580;50.106;8.702;2023-04-07T12:46:47;19.93;;;13.60;;
11054;SDS011;5580;50.106;8.702;2023-04-07T12:49:13;19.90;;;13.00;;
11054;SDS011;5580;50.106;8.702;2023-04-07T12:51:38;19.07;;;12.40;;
11054;SDS011;5580;50.106;8.702;2023-04-07T12:54:04;18.27;;;12.40;;
11054;SDS011;5580;50.106;8.702;2023-04-07T12:56:30;19.43;;;13.13;;
11054;SDS011;5580;50.106;8.702;2023-04-07T12:58:55;16.67;;;10.87;;
11054;SDS011;5580;50.106;8.702;2023-04-07T13:01:21;16.43;;;10.67;;
11054;SDS011;5580;50.106;8.702;2023-04-07T13:03:46;16.80;;;11.20;;
11054;SDS011;5580;50.106;8.702;2023-04-07T13:06:12;16.53;;;10.93;;
11054;SDS011;5580;50.106;8.702;2023-04-07T13:08:40;19.47;;;12.10;;
11054;SDS011;5580;50.106;8.702;2023-04-07T13:11:06;13.67;;;9.57;;
11054;SDS011;5580;50.106;8.702;2023-04-07T13:13:32;17.17;;;10.70;;
11054;SDS011;5580;50.106;8.702;2023-04-07T13:15:57;16.87;;;11.37;;
11054;SDS011;5580;50.106;8.702;2023-04-07T13:18:23;16.20;;;11.13;;
11054;SDS011;5580;50.106;8.702;2023-04-07T13:20:49;18.80;;;11.70;;
11054;SDS011;5580;50.106;8.702;2023-04-07T13:23:15;17.30;;;10.97;;
11054;SDS011;5580;50.106;8.702;2023-04-07T13:25:40;16.40;;;9.60;;
11054;SDS011;5580;50.106;8.702;2023-04-07T13:28:06;14.23;;;8.90;;
11054;SDS011;5580;50.106;8.702;2023-04-07T13:30:32;13.63;;;9.03;;
11054;SDS011;5580;50.106;8.702;2023-04-07T13:32:57;14.70;;;9.63;;
11054;SDS011;5580;50.106;8.702;2023-04-07T13:35:23;12.90;;;8.50;;
11054;SDS011;5580;50.106;8.702;2023-04-07T13:37:49;12.97;;;8.73;;
11054;SDS011;5580;50.106;8.702;2023-04-07T13:40:15;13.20;;;8.07;;
11054;SDS011;5580;50.106;8.702;2023-04-07T13:42:42;14.10;;;9.03;;
11054;SDS011;5580;50.106;8.702;2023-04-07T13:45:07;13.13;;;8.77;;
11054;SDS011;5580;50.106;8.702;2023-04-07T13:47:33;11.63;;;8.03;;
11054;SDS011;5580;50.106;8.702;2023-04-07T13:49:59;11.30;;;7.80;;
11054;SDS011;5580;50.106;8.702;2023-04-07T13:52:25;11.37;;;7.50;;
11054;SDS011;5580;50.106;8.702;2023-04-07T13:54:51;11.70;;;8.00;;
11054;SDS011;5580;50.106;8.702;2023-04-07T13:57:17;11.83;;;8.10;;
11054;SDS011;5580;50.106;8.702;2023-04-07T13:59:45;13.10;;;8.00;;
11054;SDS011;5580;50.106;8.702;2023-04-07T14:02:13;11.17;;;7.30;;
11054;SDS011;5580;50.106;8.702;2023-04-07T14:04:38;11.97;;;8.07;;
11054;SDS011;5580;50.106;8.702;2023-04-07T14:07:04;13.10;;;7.67;;
11054;SDS011;5580;50.106;8.702;2023-04-07T14:09:30;11.23;;;7.17;;
11054;SDS011;5580;50.106;8.702;2023-04-07T14:11:55;10.40;;;7.23;;
11054;SDS011;5580;50.106;8.702;2023-04-07T14:14:21;8.50;;;5.90;;
11054;SDS011;5580;50.106;8.702;2023-04-07T14:16:47;8.87;;;5.70;;
11054;SDS011;5580;50.106;8.702;2023-04-07T14:19:16;9.20;;;5.87;;
11054;SDS011;5580;50.106;8.702;2023-04-07T14:21:47;9.63;;;6.20;;
11054;SDS011;5580;50.106;8.702;2023-04-07T14:24:12;9.53;;;6.53;;
11054;SDS011;5580;50.106;8.702;2023-04-07T14:26:38;10.70;;;6.87;;
11054;SDS011;5580;50.106;8.702;2023-04-07T14:29:03;11.13;;;7.00;;
11054;SDS011;5580;50.106;8.702;2023-04-07T14:31:29;10.50;;;7.17;;
11054;SDS011;5580;50.106;8.702;2023-04-07T14:33:55;10.77;;;7.33;;
11054;SDS011;5580;50.106;8.702;2023-04-07T14:36:20;10.30;;;6.53;;
11054;SDS011;5580;50.106;8.702;2023-04-07T14:38:46;10.27;;;7.00;;
11054;SDS011;5580;50.106;8.702;2023-04-07T14:41:11;10.20;;;6.60;;
11054;SDS011;5580;50.106;8.702;2023-04-07T14:43:37;10.57;;;6.50;;
11054;SDS011;5580;50.106;8.702;2023-04-07T14:46:03;8.87;;;5.93;;
11054;SDS011;5580;50.106;8.702;2023-04-07T14:48:29;9.73;;;6.53;;
11054;SDS011;5580;50.106;8.702;2023-04-07T14:50:56;10.27;;;6.93;;
11054;SDS011;5580;50.106;8.702;2023-04-07T14:53:22;7.70;;;5.60;;
11054;SDS011;5580;50.106;8.702;2023-04-07T14:55:47;7.70;;;5.10;;
11054;SDS011;5580;50.106;8.702;2023-04-07T14:58:13;6.77;;;5.23;;
11054;SDS011;5580;50.106;8.702;2023-04-07T15:00:39;6.87;;;4.77;;